Time;durP1;ratioP1;P1;durP2;ratioP2;P2;SDS_P1;SDS_P2;PMS_P1;PMS_P2;Temp;Humidity;BMP_temperature;BMP_pressure;BME280_temperature;BME280_humidity;BME280_pressure;Samples;Min_cycle;Max_cycle;Signal;HPM_P1;HPM_P2
2021/04/24 00:02:28;;;;;;;15.33;7.50;;;;;;;7.09;94.84;95283.00;10370555;28;20084;-84
2021/04/24 00:07:28;;;;;;;15.30;6.90;;;;;;;7.09;91.45;95282.16;10370423;28;20014;-83
2021/04/24 00:12:29;;;;;;;14.20;7.70;;;;;;;6.98;96.00;95281.16;10369727;28;20281;-83
2021/04/24 00:17:29;;;;;;;12.18;8.20;;;;;;;6.86;94.46;95283.84;10367391;28;20026;-83
2021/04/24 00:22:31;;;;;;;14.05;7.00;;;;;;;6.73;95.90;95279.59;10364720;28;20033;-82
2021/04/24 00:27:31;;;;;;;17.08;8.65;;;;;;;6.66;96.45;95292.25;10362744;28;20029;-84
2021/04/24 00:32:31;;;;;;;12.17;7.43;;;;;;;6.62;100.00;95289.25;10369258;28;20024;-83
2021/04/24 00:37:32;;;;;;;17.63;6.95;;;;;;;6.55;98.84;95282.41;10352097;28;20613;-84
2021/04/24 00:42:33;;;;;;;14.73;7.00;;;;;;;6.49;98.38;95282.28;10371492;28;20076;-82
2021/04/24 00:47:33;;;;;;;15.50;7.72;;;;;;;6.58;100.00;95287.28;10359832;28;20280;-84
2021/04/24 00:52:34;;;;;;;14.25;7.90;;;;;;;6.40;98.56;95293.56;10378106;28;20029;-83
2021/04/24 00:57:35;;;;;;;14.73;6.88;;;;;;;6.33;98.79;95291.00;10359284;28;20025;-83
2021/04/24 01:02:37;;;;;;;12.90;7.72;;;;;;;6.25;99.18;95294.84;10377002;28;20033;-83
2021/04/24 01:07:39;;;;;;;12.63;7.45;;;;;;;6.27;97.89;95298.09;10376543;28;20441;-82
2021/04/24 01:12:47;;;;;;;15.88;7.28;;;;;;;6.24;99.43;95303.88;10359028;28;20026;-82
2021/04/24 01:17:47;;;;;;;13.98;8.25;;;;;;;6.09;99.77;95303.53;10376161;28;20018;-82
2021/04/24 01:22:49;;;;;;;18.88;8.40;;;;;;;6.05;97.46;95305.03;10375955;28;20362;-82
2021/04/24 01:27:54;;;;;;;21.02;8.13;;;;;;;6.04;95.73;95303.41;10358380;28;20116;-83
2021/04/24 01:32:55;;;;;;;16.45;7.88;;;;;;;5.99;100.00;95296.91;10376070;28;20042;-83
2021/04/24 01:37:57;;;;;;;11.85;7.75;;;;;;;6.04;100.00;95298.91;10371010;28;20033;-83
2021/04/24 01:42:58;;;;;;;16.90;6.88;;;;;;;5.94;99.87;95294.06;10357980;28;20065;-82
2021/04/24 01:47:59;;;;;;;14.68;7.55;;;;;;;5.89;100.00;95299.28;10375169;28;20778;-83
2021/04/24 01:53:01;;;;;;;21.08;7.47;;;;;;;5.81;100.00;95307.63;10373620;28;20466;-82
2021/04/24 01:58:05;;;;;;;22.35;7.80;;;;;;;5.91;100.00;95309.75;10374225;28;20113;-83
2021/04/24 02:03:10;;;;;;;17.10;7.85;;;;;;;5.88;100.00;95310.19;10374420;28;20079;-84
2021/04/24 02:08:16;;;;;;;21.50;8.73;;;;;;;5.78;100.00;95311.56;10373131;28;20030;-85
2021/04/24 02:13:20;;;;;;;16.90;8.13;;;;;;;5.68;100.00;95313.97;10362931;28;20109;-84
2021/04/24 02:18:22;;;;;;;16.20;8.05;;;;;;;5.75;100.00;95312.03;10370914;28;20099;-85
2021/04/24 02:23:22;;;;;;;18.73;7.55;;;;;;;5.85;100.00;95311.47;10373024;28;20088;-86
2021/04/24 02:28:22;;;;;;;13.30;7.35;;;;;;;5.84;100.00;95311.69;10373205;28;20071;-85
2021/04/24 02:33:23;;;;;;;16.13;6.63;;;;;;;5.86;100.00;95313.09;10372947;28;20030;-85
2021/04/24 02:38:32;;;;;;;14.88;7.45;;;;;;;5.79;100.00;95310.53;10371484;28;20032;-84
2021/04/24 02:43:33;;;;;;;15.93;8.52;;;;;;;5.53;100.00;95313.59;10371354;28;20073;-84
2021/04/24 02:48:34;;;;;;;22.13;9.40;;;;;;;5.67;100.00;95308.88;10372583;28;20025;-84
2021/04/24 02:53:34;;;;;;;28.85;8.93;;;;;;;5.66;100.00;95316.06;10372862;28;20689;-84
2021/04/24 02:58:34;;;;;;;13.90;7.93;;;;;;;5.69;100.00;95320.91;10372195;28;20034;-84
2021/04/24 03:03:35;;;;;;;13.97;7.67;;;;;;;5.68;100.00;95303.31;10383713;28;20033;-84
2021/04/24 03:08:35;;;;;;;19.27;7.43;;;;;;;5.67;100.00;95316.88;10412528;28;20025;-83
2021/04/24 03:13:35;;;;;;;12.40;7.67;;;;;;;5.59;100.00;95305.47;10394705;28;20065;-84
2021/04/24 03:18:36;;;;;;;12.47;7.87;;;;;;;5.65;100.00;95307.25;10411968;28;20040;-85
2021/04/24 03:23:37;;;;;;;19.15;8.40;;;;;;;5.58;100.00;95317.19;10411896;28;20033;-85
2021/04/24 03:28:37;;;;;;;16.43;8.70;;;;;;;5.54;100.00;95324.03;10392335;28;20021;-85
2021/04/24 03:33:39;;;;;;;21.97;8.20;;;;;;;5.38;100.00;95322.78;10400701;28;20311;-85
2021/04/24 03:38:40;;;;;;;15.02;8.02;;;;;;;5.45;100.00;95318.19;10407299;28;20481;-81
2021/04/24 03:43:40;;;;;;;19.42;8.60;;;;;;;5.18;100.00;95319.56;10410000;28;20136;-82
2021/04/24 03:48:41;;;;;;;16.17;8.65;;;;;;;5.36;100.00;95324.06;10392866;28;20025;-83
2021/04/24 03:53:41;;;;;;;21.20;7.35;;;;;;;5.58;100.00;95325.19;10411148;28;20156;-84
2021/04/24 03:58:42;;;;;;;22.73;9.10;;;;;;;5.64;100.00;95331.47;10386696;28;20030;-75
2021/04/24 04:03:42;;;;;;;19.13;9.47;;;;;;;5.72;100.00;95338.31;10407337;28;20284;-84
2021/04/24 04:08:42;;;;;;;16.37;9.47;;;;;;;5.81;100.00;95351.09;10410584;28;20261;-83
2021/04/24 04:13:43;;;;;;;18.43;8.57;;;;;;;5.90;100.00;95340.94;10410331;28;20098;-82
2021/04/24 04:18:43;;;;;;;16.77;8.53;;;;;;;5.99;100.00;95339.59;10413510;28;20291;-82
2021/04/24 04:23:43;;;;;;;18.40;8.40;;;;;;;6.04;100.00;95340.75;10413789;28;20414;-82
2021/04/24 04:28:44;;;;;;;19.33;9.80;;;;;;;6.16;100.00;95345.06;10408203;28;20172;-77
2021/04/24 04:33:44;;;;;;;20.57;8.00;;;;;;;6.32;100.00;95345.44;10409510;28;20041;-77
2021/04/24 04:38:44;;;;;;;14.80;9.13;;;;;;;6.43;100.00;95344.66;10406194;28;20312;-77
2021/04/24 04:43:45;;;;;;;19.42;10.18;;;;;;;6.41;100.00;95340.56;10426996;28;20056;-76
2021/04/24 04:48:45;;;;;;;22.77;9.90;;;;;;;6.22;100.00;95354.00;10450520;28;20029;-77
2021/04/24 04:53:45;;;;;;;16.37;10.10;;;;;;;6.12;100.00;95343.91;10411288;28;20121;-76
2021/04/24 04:58:46;;;;;;;19.30;9.45;;;;;;;6.09;100.00;95340.88;10365373;28;20073;-77
2021/04/24 05:03:46;;;;;;;16.60;9.33;;;;;;;6.38;100.00;95322.34;10376028;28;20500;-77
2021/04/24 05:08:47;;;;;;;26.43;11.20;;;;;;;6.69;100.00;95320.38;10401439;28;20080;-76
2021/04/24 05:13:47;;;;;;;24.75;9.93;;;;;;;6.84;100.00;95318.81;10408576;28;20040;-76
2021/04/24 05:18:47;;;;;;;18.77;10.47;;;;;;;6.97;100.00;95323.09;10393624;28;20107;-77
2021/04/24 05:23:48;;;;;;;23.07;11.53;;;;;;;7.17;100.00;95333.41;10392912;28;20272;-82
2021/04/24 05:28:48;;;;;;;27.00;12.27;;;;;;;7.19;100.00;95335.84;10379579;28;20030;-75
2021/04/24 05:33:49;;;;;;;37.20;10.63;;;;;;;7.26;100.00;95344.53;10366540;28;20408;-76
2021/04/24 05:38:49;;;;;;;22.88;10.73;;;;;;;7.75;100.00;95336.09;10370275;28;20409;-75
2021/04/24 05:43:51;;;;;;;27.58;11.05;;;;;;;8.12;95.97;95337.50;10369905;28;20542;-75
2021/04/24 05:48:52;;;;;;;29.88;9.88;;;;;;;8.57;86.76;95336.66;10368914;28;20022;-75
2021/04/24 05:53:53;;;;;;;27.80;9.52;;;;;;;8.84;83.92;95342.13;10397859;28;20044;-75
2021/04/24 05:58:54;;;;;;;24.23;8.93;;;;;;;9.12;73.43;95351.06;10408194;28;20044;-75
2021/04/24 06:03:54;;;;;;;14.10;8.30;;;;;;;9.68;79.08;95344.75;10402422;28;20441;-75
2021/04/24 06:08:55;;;;;;;34.00;9.93;;;;;;;10.63;70.91;95338.91;10366473;28;20481;-75
2021/04/24 06:13:55;;;;;;;22.40;10.03;;;;;;;11.10;67.26;95340.78;10367008;28;20064;-75
2021/04/24 06:18:56;;;;;;;26.63;9.37;;;;;;;11.46;64.23;95337.47;10365254;28;20791;-75
2021/04/24 06:23:56;;;;;;;22.88;9.82;;;;;;;11.93;61.38;95344.59;10364256;28;20076;-77
2021/04/24 06:28:57;;;;;;;25.83;9.48;;;;;;;11.52;57.87;95338.28;10363142;28;20089;-77
2021/04/24 06:33:57;;;;;;;22.70;9.23;;;;;;;11.89;52.21;95345.38;10367841;28;20028;-81
2021/04/24 06:38:58;;;;;;;23.80;8.60;;;;;;;11.34;52.74;95339.56;10393183;28;20034;-77
2021/04/24 06:43:59;;;;;;;21.25;8.57;;;;;;;11.26;52.85;95338.16;10377320;28;20046;-77
2021/04/24 06:49:00;;;;;;;11.50;5.53;;;;;;;11.65;47.94;95348.56;10363330;28;20353;-77
2021/04/24 06:54:00;;;;;;;18.57;5.70;;;;;;;11.40;48.20;95335.81;10375122;28;20025;-77
2021/04/24 06:59:00;;;;;;;18.13;7.43;;;;;;;11.25;46.99;95342.75;10401329;28;20065;-77
2021/04/24 07:04:01;;;;;;;18.30;7.40;;;;;;;11.89;46.53;95338.13;10362786;28;20037;-78
2021/04/24 07:09:01;;;;;;;16.43;6.70;;;;;;;11.58;48.68;95345.31;10361445;28;20033;-77
2021/04/24 07:14:02;;;;;;;18.08;6.65;;;;;;;12.18;46.09;95334.16;10362497;28;20093;-79
2021/04/24 07:19:03;;;;;;;17.23;8.38;;;;;;;13.38;46.10;95331.88;10362523;28;20037;-78
2021/04/24 07:24:04;;;;;;;20.30;9.95;;;;;;;14.00;43.66;95331.53;10361384;28;20049;-77
2021/04/24 07:29:06;;;;;;;16.08;6.93;;;;;;;15.07;39.68;95331.78;10360660;28;20473;-78
2021/04/24 07:34:08;;;;;;;17.75;7.25;;;;;;;15.83;38.93;95321.13;10361443;28;20037;-77
2021/04/24 07:39:08;;;;;;;13.57;6.63;;;;;;;16.66;36.62;95317.19;10361259;28;20064;-78
2021/04/24 07:44:08;;;;;;;16.97;5.93;;;;;;;16.61;36.43;95317.28;10359774;28;20493;-77
2021/04/24 07:49:09;;;;;;;11.57;5.93;;;;;;;15.74;35.35;95314.75;10393229;28;20306;-77
2021/04/24 07:54:13;;;;;;;12.07;6.18;;;;;;;15.73;36.68;95313.13;10400734;28;20060;-77
2021/04/24 07:59:13;;;;;;;12.60;5.93;;;;;;;14.88;36.13;95312.75;10401794;28;20033;-77
2021/04/24 08:04:14;;;;;;;20.33;7.35;;;;;;;15.55;37.80;95310.09;10401262;28;20029;-77
2021/04/24 08:09:14;;;;;;;13.93;5.88;;;;;;;15.66;38.04;95301.84;10401289;28;20056;-76
2021/04/24 08:14:15;;;;;;;15.53;6.07;;;;;;;15.66;36.97;95304.56;10400922;28;20488;-76
2021/04/24 08:19:15;;;;;;;15.27;6.75;;;;;;;15.45;37.26;95310.22;10400875;28;20295;-77
2021/04/24 08:24:16;;;;;;;16.30;6.28;;;;;;;16.13;36.87;95297.41;10385369;28;20413;-77
2021/04/24 08:29:17;;;;;;;18.25;6.47;;;;;;;15.63;35.65;95288.84;10359915;28;20033;-76
2021/04/24 08:34:21;;;;;;;11.23;5.07;;;;;;;16.22;35.17;95268.50;10359788;28;20818;-77
2021/04/24 08:39:21;;;;;;;19.10;6.43;;;;;;;16.22;34.61;95259.56;10375554;28;20036;-77
2021/04/24 08:44:22;;;;;;;13.80;5.57;;;;;;;16.99;33.94;95252.81;10400730;28;20056;-77
2021/04/24 08:49:23;;;;;;;14.45;5.70;;;;;;;17.64;33.69;95248.25;10382700;28;20771;-77
2021/04/24 08:54:24;;;;;;;20.95;5.30;;;;;;;17.18;31.64;95246.50;10399942;28;20071;-76
2021/04/24 08:59:24;;;;;;;13.00;4.90;;;;;;;17.54;31.13;95230.25;10385916;28;20026;-78
2021/04/24 09:04:25;;;;;;;11.87;5.57;;;;;;;17.40;33.07;95237.59;10414365;28;20025;-78
2021/04/24 09:09:27;;;;;;;17.70;6.40;;;;;;;16.92;33.08;95215.19;10422935;28;20814;-78
2021/04/24 09:14:30;;;;;;;16.77;6.50;;;;;;;15.61;34.52;95217.91;10364960;28;20404;-78
2021/04/24 09:19:34;;;;;;;11.27;5.72;;;;;;;15.28;35.19;95207.78;10381614;28;20105;-78
2021/04/24 09:24:39;;;;;;;12.75;6.20;;;;;;;15.73;33.56;95197.38;10423905;28;20025;-78
2021/04/24 09:29:39;;;;;;;12.70;5.80;;;;;;;15.13;33.01;95197.16;10415113;28;20476;-76
2021/04/24 09:34:41;;;;;;;10.90;5.30;;;;;;;14.85;34.01;95203.16;10388003;28;20029;-76
2021/04/24 09:39:50;;;;;;;14.68;5.45;;;;;;;14.84;33.85;95195.34;10392081;28;20653;-78
2021/04/24 09:44:50;;;;;;;10.98;5.25;;;;;;;14.47;34.35;95186.78;10399105;28;20049;-79
2021/04/24 09:49:50;;;;;;;12.67;5.83;;;;;;;14.58;34.70;95175.84;10406118;28;20107;-84
2021/04/24 09:54:51;;;;;;;10.65;5.80;;;;;;;15.28;35.20;95169.06;10398617;28;20322;-83
2021/04/24 09:59:55;;;;;;;20.70;7.40;;;;;;;15.58;35.34;95162.41;10390405;28;20030;-82
2021/04/24 10:05:09;;;;;;;16.40;6.03;;;;;;;15.36;35.79;95154.88;10396182;28;20047;-83
2021/04/24 10:10:13;;;;;;;11.70;5.50;;;;;;;15.23;36.27;95151.00;10392251;28;20014;-83
2021/04/24 10:15:13;;;;;;;16.15;5.60;;;;;;;15.21;33.39;95145.06;10391196;28;20108;-82
2021/04/24 10:20:14;;;;;;;13.00;5.70;;;;;;;15.09;33.39;95136.56;10400952;28;20036;-83
2021/04/24 10:25:15;;;;;;;11.82;5.35;;;;;;;15.29;34.09;95124.66;10381055;28;20735;-84
2021/04/24 10:30:17;;;;;;;11.82;6.20;;;;;;;15.51;33.84;95129.47;10395479;28;20052;-81
2021/04/24 10:35:19;;;;;;;19.13;6.22;;;;;;;15.74;34.39;95127.75;10393932;28;20558;-82
2021/04/24 10:40:20;;;;;;;13.77;5.80;;;;;;;15.32;34.96;95127.59;10395214;28;20021;-82
2021/04/24 10:45:28;;;;;;;17.63;5.50;;;;;;;15.78;34.92;95120.66;10409536;28;20056;-82
2021/04/24 10:50:45;;;;;;;19.55;6.05;;;;;;;15.92;34.69;95120.72;10410681;28;20028;-82
2021/04/24 10:55:46;;;;;;;17.05;6.38;;;;;;;15.64;34.79;95128.72;10410005;28;20433;-82
2021/04/24 11:00:51;;;;;;;16.83;6.95;;;;;;;14.68;34.20;95133.28;10408570;28;20117;-82
2021/04/24 11:05:51;;;;;;;15.93;5.18;;;;;;;14.69;35.34;95142.22;10398164;28;20095;-82
2021/04/24 11:11:11;;;;;;;16.10;6.13;;;;;;;15.09;35.30;95145.50;10369062;28;20100;-82
2021/04/24 11:16:13;;;;;;;16.55;6.00;;;;;;;15.19;35.35;95160.78;10367255;28;20117;-82
2021/04/24 11:21:17;;;;;;;19.48;5.22;;;;;;;14.91;34.59;95154.41;10366739;28;20022;-83
2021/04/24 11:26:33;;;;;;;14.25;5.32;;;;;;;14.94;35.11;95160.03;10368317;28;20030;-83
2021/04/24 11:31:43;;;;;;;13.98;6.05;;;;;;;14.84;35.20;95143.94;10368741;28;20026;-82
2021/04/24 11:36:43;;;;;;;11.45;5.28;;;;;;;15.10;34.37;95147.13;10369233;28;20037;-83
2021/04/24 11:41:45;;;;;;;9.73;5.53;;;;;;;14.94;34.85;95143.00;10368218;28;20049;-83
2021/04/24 11:46:56;;;;;;;13.95;5.75;;;;;;;15.23;35.94;95152.91;10368585;28;20034;-83
2021/04/24 11:52:08;;;;;;;14.15;6.45;;;;;;;16.07;37.03;95146.75;10369159;28;20517;-83
2021/04/24 11:57:15;;;;;;;15.73;6.07;;;;;;;16.45;35.15;95130.34;10398199;28;20036;-83
2021/04/24 12:02:15;;;;;;;11.70;5.00;;;;;;;16.79;33.53;95134.56;10408705;28;20032;-83
2021/04/24 12:07:19;;;;;;;10.47;5.13;;;;;;;16.71;33.75;95124.41;10391303;28;20053;-83
2021/04/24 12:12:33;;;;;;;11.00;4.68;;;;;;;16.19;35.10;95113.72;10408423;28;20021;-83
2021/04/24 12:17:34;;;;;;;13.45;4.95;;;;;;;16.30;34.15;95106.19;10390781;28;20429;-83
2021/04/24 12:22:38;;;;;;;13.25;5.55;;;;;;;16.20;33.60;95099.88;10408750;28;20029;-83
2021/04/24 12:27:44;;;;;;;14.73;5.40;;;;;;;16.20;33.83;95090.91;10409196;28;20432;-83
2021/04/24 12:32:46;;;;;;;9.00;4.40;;;;;;;16.20;33.02;95083.59;10408403;28;20029;-83
2021/04/24 12:37:50;;;;;;;12.95;4.80;;;;;;;15.91;34.32;95064.06;10378587;28;20021;-83
2021/04/24 12:42:51;;;;;;;12.10;5.03;;;;;;;15.84;33.85;95059.84;10401798;28;20049;-82
2021/04/24 12:47:53;;;;;;;18.80;5.13;;;;;;;15.68;34.64;95053.06;10411606;28;20122;-82
2021/04/24 12:52:56;;;;;;;10.85;5.07;;;;;;;15.54;37.30;95048.44;10373008;28;20048;-83
2021/04/24 12:58:00;;;;;;;11.82;4.10;;;;;;;15.36;36.02;95033.00;10407814;28;20033;-82
2021/04/24 13:03:03;;;;;;;12.63;4.90;;;;;;;15.45;35.71;95028.53;10398167;28;20033;-83
2021/04/24 13:08:11;;;;;;;22.45;5.05;;;;;;;15.20;34.89;95017.00;10409040;28;20396;-81
2021/04/24 13:13:21;;;;;;;10.30;5.00;;;;;;;15.03;35.36;95009.41;10396884;28;20036;-84
2021/04/24 13:18:24;;;;;;;14.38;4.65;;;;;;;14.89;35.95;95008.56;10415196;28;20032;-83
2021/04/24 13:23:25;;;;;;;11.57;4.47;;;;;;;14.56;34.17;95013.84;10398555;28;20092;-82
2021/04/24 13:28:29;;;;;;;14.40;4.85;;;;;;;14.68;34.97;95005.34;10394345;28;20396;-84
2021/04/24 13:33:35;;;;;;;11.98;5.60;;;;;;;14.63;34.92;95008.91;10415138;28;20404;-83
2021/04/24 13:38:36;;;;;;;14.43;4.85;;;;;;;14.61;35.95;95002.16;10396658;28;20028;-83
2021/04/24 13:43:36;;;;;;;11.00;4.25;;;;;;;14.62;34.10;94990.25;10410879;28;20053;-78
2021/04/24 13:48:36;;;;;;;13.93;5.10;;;;;;;14.57;34.68;94987.59;10405334;28;20026;-78
2021/04/24 13:53:37;;;;;;;16.97;4.93;;;;;;;14.49;34.64;94992.56;10402959;28;20280;-76
2021/04/24 13:58:37;;;;;;;11.07;4.90;;;;;;;14.45;34.34;94979.94;10400356;28;20065;-77
2021/04/24 14:03:38;;;;;;;8.80;4.60;;;;;;;14.57;33.63;94980.31;10407069;28;20408;-77
2021/04/24 14:08:39;;;;;;;12.47;4.20;;;;;;;14.63;33.65;94972.97;10406342;28;20025;-77
2021/04/24 14:13:39;;;;;;;11.38;4.60;;;;;;;14.83;34.44;94972.66;10404954;28;20396;-78
2021/04/24 14:18:41;;;;;;;11.88;4.65;;;;;;;15.03;33.53;94970.72;10405182;28;20037;-78
2021/04/24 14:23:41;;;;;;;14.85;3.80;;;;;;;15.23;32.90;94957.97;10404906;28;20112;-77
2021/04/24 14:28:43;;;;;;;12.07;4.35;;;;;;;15.35;32.48;94964.50;10405958;28;20021;-78
2021/04/24 14:33:43;;;;;;;9.40;4.25;;;;;;;15.40;32.29;94965.50;10371326;28;20029;-77
2021/04/24 14:38:44;;;;;;;9.23;3.80;;;;;;;15.35;31.50;94953.66;10379524;28;20041;-77
2021/04/24 14:43:44;;;;;;;10.37;4.53;;;;;;;15.21;32.23;94953.63;10404191;28;20057;-77
2021/04/24 14:48:46;;;;;;;13.18;4.65;;;;;;;15.13;32.94;94957.03;10403457;28;20500;-77
2021/04/24 14:53:47;;;;;;;8.10;4.30;;;;;;;15.26;34.72;94957.34;10366345;28;20034;-78
2021/04/24 14:58:47;;;;;;;12.88;4.50;;;;;;;15.19;35.42;94955.03;10386963;28;20025;-77
2021/04/24 15:03:48;;;;;;;14.17;5.80;;;;;;;15.10;34.28;94952.22;10404229;28;20021;-77
2021/04/24 15:08:48;;;;;;;10.02;4.95;;;;;;;15.09;34.97;94947.88;10403713;28;20034;-77
2021/04/24 15:13:48;;;;;;;11.13;4.00;;;;;;;15.20;33.85;94949.31;10401391;28;20484;-77
2021/04/24 15:18:51;;;;;;;11.80;3.90;;;;;;;15.21;34.17;94953.63;10367850;28;20295;-78
2021/04/24 15:23:52;;;;;;;7.20;3.63;;;;;;;15.30;34.07;94947.53;10386429;28;20037;-79
2021/04/24 15:28:53;;;;;;;13.85;4.63;;;;;;;15.26;34.09;94950.03;10403224;28;20029;-77
2021/04/24 15:33:57;;;;;;;9.38;3.50;;;;;;;15.34;34.05;94952.06;10404113;28;20389;-77
2021/04/24 15:38:59;;;;;;;13.32;4.47;;;;;;;15.44;34.23;94944.88;10402685;28;20025;-78
2021/04/24 15:44:00;;;;;;;7.70;3.65;;;;;;;15.44;34.43;94945.66;10403600;28;20049;-78
2021/04/24 15:49:00;;;;;;;9.55;4.82;;;;;;;15.51;35.63;94951.47;10403744;28;20777;-77
2021/04/24 15:54:01;;;;;;;6.78;3.20;;;;;;;15.58;35.75;94944.88;10402834;28;20041;-77
2021/04/24 15:59:02;;;;;;;11.88;3.97;;;;;;;15.54;34.36;94937.34;10402153;28;20583;-77
2021/04/24 16:04:03;;;;;;;8.55;3.85;;;;;;;15.38;34.15;94925.19;10402421;28;20515;-77
2021/04/24 16:09:03;;;;;;;17.35;6.00;;;;;;;15.30;34.48;94921.25;10389267;28;20033;-77
2021/04/24 16:14:03;;;;;;;9.17;4.10;;;;;;;15.12;34.99;94922.91;10360248;28;20022;-77
2021/04/24 16:19:04;;;;;;;11.68;3.83;;;;;;;14.98;34.79;94922.88;10362010;28;20288;-77
2021/04/24 16:24:05;;;;;;;11.03;3.87;;;;;;;14.51;35.32;94930.91;10378429;28;20691;-77
2021/04/24 16:29:06;;;;;;;11.27;4.10;;;;;;;14.53;35.85;94928.69;10402013;28;20485;-78
2021/04/24 16:34:06;;;;;;;10.60;4.63;;;;;;;14.52;36.29;94932.50;10399595;28;20026;-77
2021/04/24 16:39:07;;;;;;;12.73;4.45;;;;;;;14.40;36.72;94936.72;10401052;28;20450;-78
2021/04/24 16:44:09;;;;;;;8.50;4.10;;;;;;;14.19;36.78;94929.72;10400229;28;20702;-78
2021/04/24 16:49:10;;;;;;;11.40;4.35;;;;;;;14.05;37.44;94941.53;10401141;28;20031;-78
2021/04/24 16:54:10;;;;;;;7.85;3.70;;;;;;;13.78;40.71;94949.13;10402768;28;20038;-77
2021/04/24 16:59:10;;;;;;;10.65;4.28;;;;;;;13.33;43.07;94951.22;10375753;28;20041;-78
2021/04/24 17:04:11;;;;;;;10.37;4.87;;;;;;;13.02;44.71;94962.28;10360661;28;20025;-76
2021/04/24 17:09:11;;;;;;;12.40;4.23;;;;;;;12.78;45.40;94963.03;10376541;28;20056;-76
2021/04/24 17:14:12;;;;;;;9.73;4.05;;;;;;;12.53;46.75;94968.56;10400376;28;20276;-78
2021/04/24 17:19:13;;;;;;;8.63;4.17;;;;;;;12.35;48.00;94975.41;10399388;28;20026;-77
2021/04/24 17:24:13;;;;;;;7.93;4.45;;;;;;;12.19;48.99;94964.72;10402200;28;20283;-78
2021/04/24 17:29:14;;;;;;;9.32;4.95;;;;;;;12.07;50.20;94981.22;10376586;28;20047;-78
2021/04/24 17:34:15;;;;;;;11.45;4.57;;;;;;;11.87;51.72;94978.56;10381662;28;20021;-77
2021/04/24 17:39:16;;;;;;;10.80;5.50;;;;;;;11.70;53.39;94986.97;10400989;28;20877;-77
2021/04/24 17:44:16;;;;;;;11.25;5.35;;;;;;;11.59;54.76;94995.06;10402801;28;20110;-77
2021/04/24 17:49:16;;;;;;;13.75;5.10;;;;;;;11.43;55.80;94988.94;10389478;28;20021;-77
2021/04/24 17:54:17;;;;;;;7.53;4.53;;;;;;;11.47;56.30;94989.19;10398349;28;20124;-77
2021/04/24 17:59:17;;;;;;;12.10;4.77;;;;;;;11.48;56.80;94981.91;10386633;28;20848;-78
2021/04/24 18:04:18;;;;;;;9.70;5.10;;;;;;;11.33;58.88;94994.34;10388797;28;20299;-78
2021/04/24 18:09:19;;;;;;;10.38;5.50;;;;;;;11.20;61.28;95011.81;10393170;28;20029;-78
2021/04/24 18:14:19;;;;;;;13.50;7.10;;;;;;;11.03;62.05;95012.09;10367190;28;20017;-78
2021/04/24 18:19:20;;;;;;;17.10;7.03;;;;;;;11.06;68.09;95027.69;10383948;28;20076;-77
2021/04/24 18:24:20;;;;;;;10.03;5.93;;;;;;;10.73;75.38;95031.69;10383523;28;20021;-76
2021/04/24 18:29:23;;;;;;;14.13;6.03;;;;;;;10.55;79.92;95038.41;10362694;28;20083;-76
2021/04/24 18:34:23;;;;;;;10.80;5.70;;;;;;;10.43;82.61;95046.69;10387179;28;20655;-77
2021/04/24 18:39:23;;;;;;;16.03;6.87;;;;;;;9.98;87.81;95045.41;10383816;28;20029;-77
2021/04/24 18:44:24;;;;;;;11.98;6.88;;;;;;;9.91;89.53;95049.13;10373587;28;20088;-77
2021/04/24 18:49:24;;;;;;;12.60;6.27;;;;;;;9.81;92.09;95054.44;10381331;28;20022;-82
2021/04/24 18:54:25;;;;;;;15.13;8.37;;;;;;;9.64;94.56;95057.31;10381321;28;20032;-77
2021/04/24 18:59:26;;;;;;;16.75;8.65;;;;;;;9.48;97.60;95053.72;10380854;28;20289;-78
2021/04/24 19:04:26;;;;;;;19.17;8.40;;;;;;;9.44;98.62;95062.53;10378445;28;20041;-78
2021/04/24 19:09:36;;;;;;;12.88;8.23;;;;;;;9.40;99.10;95062.22;10386179;28;20032;-77
2021/04/24 19:14:36;;;;;;;13.40;9.20;;;;;;;9.34;100.00;95069.44;10404435;28;20029;-77
2021/04/24 19:19:37;;;;;;;14.40;8.25;;;;;;;9.27;100.00;95068.84;10400364;28;20038;-78
2021/04/24 19:24:37;;;;;;;15.15;8.25;;;;;;;9.27;100.00;95071.53;10358379;28;20920;-77
2021/04/24 19:29:37;;;;;;;16.03;8.87;;;;;;;9.23;100.00;95071.22;10382469;28;20032;-77
2021/04/24 19:34:38;;;;;;;14.10;8.07;;;;;;;9.18;100.00;95078.41;10395756;28;20295;-78
2021/04/24 19:39:40;;;;;;;17.13;8.27;;;;;;;9.07;100.00;95070.28;10390599;28;20667;-78
2021/04/24 19:44:40;;;;;;;16.95;8.50;;;;;;;9.04;100.00;95062.78;10376891;28;20072;-77
2021/04/24 19:49:40;;;;;;;23.13;9.37;;;;;;;9.03;100.00;95077.22;10362233;28;20105;-78
2021/04/24 19:54:42;;;;;;;15.43;8.30;;;;;;;8.89;100.00;95073.34;10363561;28;20464;-77
2021/04/24 19:59:42;;;;;;;17.90;9.30;;;;;;;8.91;100.00;95075.78;10362563;28;20405;-77
2021/04/24 20:04:42;;;;;;;18.17;9.50;;;;;;;8.87;100.00;95086.19;10363328;28;20029;-84
2021/04/24 20:09:45;;;;;;;15.93;8.47;;;;;;;8.75;100.00;95085.53;10367891;28;20080;-82
2021/04/24 20:14:46;;;;;;;17.73;8.70;;;;;;;8.61;100.00;95075.22;10384166;28;20272;-83
2021/04/24 20:19:46;;;;;;;19.70;9.00;;;;;;;8.59;100.00;95071.19;10408827;28;20030;-81
2021/04/24 20:24:47;;;;;;;20.80;9.18;;;;;;;8.61;100.00;95063.69;10408879;28;20045;-83
2021/04/24 20:29:47;;;;;;;14.77;8.60;;;;;;;8.64;100.00;95068.56;10407355;28;20020;-81
2021/04/24 20:34:48;;;;;;;14.10;9.07;;;;;;;8.67;100.00;95068.84;10407705;28;20304;-83
2021/04/24 20:39:48;;;;;;;18.45;8.65;;;;;;;8.72;100.00;95076.94;10389883;28;20333;-84
2021/04/24 20:44:49;;;;;;;16.10;8.75;;;;;;;8.80;100.00;95078.34;10405535;28;20531;-84
2021/04/24 20:49:49;;;;;;;18.77;8.02;;;;;;;8.78;99.20;95080.47;10362036;28;20014;-83
2021/04/24 20:54:49;;;;;;;12.93;7.03;;;;;;;8.78;99.54;95077.00;10377650;28;20060;-82
2021/04/24 20:59:50;;;;;;;21.70;8.60;;;;;;;8.77;100.00;95084.22;10380414;28;20041;-84
2021/04/24 21:04:50;;;;;;;18.55;9.40;;;;;;;8.74;100.00;95089.28;10370030;28;20022;-85
2021/04/24 21:09:51;;;;;;;20.60;11.40;;;;;;;8.73;100.00;95088.47;10371682;28;20022;-83
2021/04/24 21:14:51;;;;;;;18.02;10.40;;;;;;;8.65;100.00;95084.38;10373103;28;21044;-83
2021/04/24 21:19:51;;;;;;;17.85;9.02;;;;;;;8.55;100.00;95081.56;10354548;28;20484;-77
2021/04/24 21:24:52;;;;;;;15.32;8.48;;;;;;;8.44;100.00;95093.22;10367979;28;20033;-77
2021/04/24 21:29:52;;;;;;;14.23;7.10;;;;;;;8.27;100.00;95094.09;10378581;28;20136;-76
2021/04/24 21:34:52;;;;;;;17.53;7.67;;;;;;;8.20;100.00;95085.44;10400304;28;20037;-77
2021/04/24 21:39:53;;;;;;;19.23;9.13;;;;;;;7.84;100.00;95093.81;10367711;28;20092;-77
2021/04/24 21:44:53;;;;;;;17.87;10.03;;;;;;;7.59;100.00;95085.41;10348756;28;20296;-77
2021/04/24 21:49:54;;;;;;;23.70;10.60;;;;;;;7.31;100.00;95089.81;10367382;28;20269;-76
2021/04/24 21:54:55;;;;;;;26.63;13.32;;;;;;;7.07;100.00;95084.63;10393859;28;20033;-76
2021/04/24 21:59:55;;;;;;;23.40;11.53;;;;;;;7.05;100.00;95088.59;10348653;28;20025;-77
2021/04/24 22:04:55;;;;;;;23.50;11.15;;;;;;;7.01;100.00;95082.94;10367049;28;20395;-76
2021/04/24 22:09:56;;;;;;;19.47;9.53;;;;;;;7.08;100.00;95075.56;10365132;28;20033;-77
2021/04/24 22:14:56;;;;;;;29.13;12.10;;;;;;;7.15;100.00;95072.75;10348037;28;20327;-76
2021/04/24 22:19:56;;;;;;;20.53;10.47;;;;;;;7.21;100.00;95073.63;10365028;28;20069;-77
2021/04/24 22:24:57;;;;;;;18.50;10.30;;;;;;;7.28;100.00;95061.69;10365212;28;20064;-77
2021/04/24 22:29:57;;;;;;;15.38;8.45;;;;;;;7.27;100.00;95064.63;10365104;28;20026;-77
2021/04/24 22:34:58;;;;;;;16.87;8.00;;;;;;;7.23;100.00;95063.50;10347783;28;20022;-77
2021/04/24 22:39:58;;;;;;;17.53;8.47;;;;;;;7.18;100.00;95056.22;10365672;28;20108;-77
2021/04/24 22:44:59;;;;;;;19.23;8.70;;;;;;;7.15;100.00;95056.69;10364309;28;20073;-76
2021/04/24 22:49:59;;;;;;;13.05;8.57;;;;;;;6.94;100.00;95048.34;10397818;28;20732;-76
2021/04/24 22:55:00;;;;;;;15.02;8.43;;;;;;;6.91;100.00;95046.16;10404764;28;20069;-76
2021/04/24 23:00:00;;;;;;;17.03;7.17;;;;;;;6.72;100.00;95044.78;10402767;28;20033;-76
2021/04/24 23:05:01;;;;;;;15.35;7.07;;;;;;;6.35;100.00;95054.00;10402237;28;20271;-76
2021/04/24 23:10:03;;;;;;;12.60;7.03;;;;;;;6.01;100.00;95034.41;10403061;28;20120;-75